Time;durP1;ratioP1;P1;durP2;ratioP2;P2;SDS_P1;SDS_P2;PMS_P1;PMS_P2;Temp;Humidity;BMP_temperature;BMP_pressure;BME280_temperature;BME280_humidity;BME280_pressure;Samples;Min_cycle;Max_cycle;Signal;HPM_P1;HPM_P2
2022/10/24 00:01:16;;;;;;;1127.38;520.90;;;15.20;99.90;;;;;;5133303;27;20653;-50
2022/10/24 00:03:44;;;;;;;1257.63;398.27;;;15.20;99.90;;;;;;5132441;27;20194;-50
2022/10/24 00:06:13;;;;;;;1592.47;416.83;;;15.20;99.90;;;;;;5132646;27;20668;-51
2022/10/24 00:08:42;;;;;;;954.60;302.05;;;15.20;99.90;;;;;;5133033;27;20298;-51
2022/10/24 00:11:13;;;;;;;1322.13;468.98;;;15.20;99.90;;;;;;5131958;27;20710;-50
2022/10/24 00:13:42;;;;;;;996.10;324.23;;;15.20;99.90;;;;;;5132016;27;20297;-50
2022/10/24 00:16:12;;;;;;;1187.68;380.52;;;15.20;99.90;;;;;;5132921;27;20199;-50
2022/10/24 00:18:40;;;;;;;1067.80;318.13;;;15.20;99.90;;;;;;5132726;27;20236;-50
2022/10/24 00:21:09;;;;;;;1437.65;452.63;;;15.20;99.90;;;;;;5133569;27;20278;-51
2022/10/24 00:23:37;;;;;;;562.25;180.48;;;15.20;99.90;;;;;;5134310;27;20302;-51
2022/10/24 00:26:06;;;;;;;1096.35;437.67;;;15.20;99.90;;;;;;5134004;27;20267;-51
2022/10/24 00:28:36;;;;;;;1211.78;361.55;;;15.20;99.90;;;;;;5122949;27;20228;-51
2022/10/24 00:31:04;;;;;;;1095.18;342.98;;;15.20;99.90;;;;;;5130745;27;20646;-51
2022/10/24 00:33:34;;;;;;;1489.78;550.60;;;15.20;99.90;;;;;;5131906;27;20206;-51
2022/10/24 00:36:02;;;;;;;1011.03;372.88;;;15.20;99.90;;;;;;5131209;27;20211;-50
2022/10/24 00:38:30;;;;;;;1063.90;458.65;;;15.10;99.90;;;;;;5132680;27;20308;-51
2022/10/24 00:40:58;;;;;;;875.10;279.75;;;15.20;99.90;;;;;;5132021;27;20231;-51
2022/10/24 00:43:27;;;;;;;1431.40;528.75;;;15.20;99.90;;;;;;5132395;27;20278;-51
2022/10/24 00:45:56;;;;;;;1114.47;376.85;;;15.20;99.90;;;;;;5132200;27;20667;-52
2022/10/24 00:48:30;;;;;;;1079.32;411.58;;;15.20;99.90;;;;;;5131705;27;20225;-49
2022/10/24 00:51:02;;;;;;;1180.15;457.70;;;15.10;99.90;;;;;;5132272;27;20790;-51
2022/10/24 00:53:33;;;;;;;1008.10;375.23;;;15.10;99.90;;;;;;5131994;27;20195;-51
2022/10/24 00:56:05;;;;;;;1268.78;433.90;;;15.10;99.90;;;;;;5131777;27;20302;-51
2022/10/24 00:58:35;;;;;;;1323.53;556.20;;;15.10;99.90;;;;;;5131881;27;20310;-51
2022/10/24 01:01:04;;;;;;;910.10;276.48;;;15.10;99.90;;;;;;5132000;27;20234;-50
2022/10/24 01:03:33;;;;;;;1083.80;386.43;;;15.00;99.90;;;;;;5131008;27;20667;-50
2022/10/24 01:06:29;;;;;;;1045.40;351.52;;;15.00;99.90;;;;;;5131933;27;20203;-51
2022/10/24 01:09:06;;;;;;;1142.90;496.85;;;15.00;99.90;;;;;;5131272;27;20203;-50
2022/10/24 01:11:45;;;;;;;904.25;332.65;;;15.00;99.90;;;;;;5131772;27;20232;-51
2022/10/24 01:14:25;;;;;;;1266.53;406.95;;;15.00;99.90;;;;;;5131247;27;20775;-51
2022/10/24 01:17:07;;;;;;;995.77;294.70;;;15.00;99.90;;;;;;5131648;27;20305;-51
2022/10/24 01:20:16;;;;;;;972.03;402.75;;;15.00;99.90;;;;;;5131268;27;20293;-51
2022/10/24 01:22:59;;;;;;;872.63;313.20;;;14.90;99.90;;;;;;5131292;27;20282;-50
2022/10/24 01:25:38;;;;;;;939.58;322.05;;;14.90;99.90;;;;;;5130804;27;20242;-50
2022/10/24 01:28:11;;;;;;;1180.87;411.43;;;14.90;99.90;;;;;;5124206;27;21055;-51
2022/10/24 01:30:45;;;;;;;854.70;281.37;;;14.90;99.90;;;;;;5125963;27;20748;-51
2022/10/24 01:33:19;;;;;;;1117.88;417.77;;;14.90;99.90;;;;;;5130795;27;20202;-50
2022/10/24 01:35:52;;;;;;;1402.20;457.57;;;14.90;99.90;;;;;;5131303;27;20293;-50
2022/10/24 01:38:26;;;;;;;864.22;255.52;;;15.00;99.90;;;;;;5124636;27;20242;-51
2022/10/24 01:40:59;;;;;;;1034.73;344.93;;;15.00;99.90;;;;;;5130950;27;20717;-49
2022/10/24 01:43:29;;;;;;;909.08;293.77;;;15.00;99.90;;;;;;5130424;27;20668;-51
2022/10/24 01:46:02;;;;;;;978.88;314.63;;;14.90;99.90;;;;;;5130980;27;20206;-51
2022/10/24 01:48:35;;;;;;;1229.50;574.95;;;15.00;99.90;;;;;;5130260;27;20313;-50
2022/10/24 01:51:04;;;;;;;1198.30;384.38;;;14.90;99.90;;;;;;5130197;27;20345;-50
2022/10/24 01:53:32;;;;;;;938.00;372.70;;;14.90;99.90;;;;;;5130473;27;20212;-51
2022/10/24 01:56:01;;;;;;;753.10;305.93;;;14.90;99.90;;;;;;5130631;27;20643;-51
2022/10/24 01:58:29;;;;;;;1143.67;434.70;;;14.90;99.90;;;;;;5130592;27;20310;-51
2022/10/24 02:01:05;;;;;;;800.78;292.55;;;14.90;99.90;;;;;;5130917;27;20309;-51
2022/10/24 02:03:36;;;;;;;1132.43;371.00;;;14.90;99.90;;;;;;5130003;27;20218;-51
2022/10/24 02:06:10;;;;;;;1131.60;443.33;;;14.90;99.90;;;;;;5130868;27;20568;-51
2022/10/24 02:08:42;;;;;;;1278.90;441.77;;;14.80;99.90;;;;;;5130752;27;20222;-51
2022/10/24 02:11:10;;;;;;;1692.27;529.27;;;14.90;99.90;;;;;;5130118;27;20227;-51
2022/10/24 02:13:45;;;;;;;830.33;267.00;;;14.90;99.90;;;;;;5130855;27;20217;-51
2022/10/24 02:16:17;;;;;;;1076.30;470.13;;;14.90;99.90;;;;;;5131222;27;20289;-50
2022/10/24 02:18:46;;;;;;;937.53;303.33;;;14.90;99.90;;;;;;5130153;27;20305;-51
2022/10/24 02:21:24;;;;;;;1203.88;424.90;;;14.90;99.90;;;;;;5131620;27;20782;-51
2022/10/24 02:23:55;;;;;;;1092.75;432.08;;;14.90;99.90;;;;;;5129831;27;20723;-51
2022/10/24 02:26:31;;;;;;;1257.07;539.92;;;14.80;99.90;;;;;;5129859;27;20302;-50
2022/10/24 02:29:04;;;;;;;1180.00;487.33;;;14.80;99.90;;;;;;5116587;27;20766;-51
2022/10/24 02:31:38;;;;;;;1219.10;427.60;;;14.90;99.90;;;;;;5130368;27;20321;-51
2022/10/24 02:34:08;;;;;;;787.67;233.37;;;14.90;99.90;;;;;;5128602;27;20302;-50
2022/10/24 02:36:39;;;;;;;996.90;306.53;;;14.80;99.90;;;;;;5130516;27;20207;-51
2022/10/24 02:39:10;;;;;;;1028.20;346.53;;;14.80;99.90;;;;;;5130200;27;20633;-51
2022/10/24 02:41:41;;;;;;;633.97;205.03;;;14.80;99.90;;;;;;5128734;27;20393;-50
2022/10/24 02:44:10;;;;;;;827.10;291.50;;;14.70;99.90;;;;;;5128544;27;20649;-51
2022/10/24 02:46:41;;;;;;;1028.27;335.23;;;14.70;99.90;;;;;;5129634;27;20227;-51
2022/10/24 02:49:10;;;;;;;843.00;294.63;;;14.70;99.90;;;;;;5130225;27;20253;-51
2022/10/24 02:51:41;;;;;;;950.07;408.93;;;14.60;99.90;;;;;;5130042;27;20270;-51
2022/10/24 02:54:09;;;;;;;965.40;359.17;;;14.60;99.90;;;;;;5130015;27;20195;-50
2022/10/24 02:56:42;;;;;;;848.63;266.17;;;14.50;99.90;;;;;;5129760;27;20389;-51
2022/10/24 02:59:10;;;;;;;671.27;234.60;;;14.50;99.90;;;;;;5130159;27;20199;-51
2022/10/24 03:01:38;;;;;;;1198.87;398.43;;;14.40;99.90;;;;;;5130018;27;20198;-50
2022/10/24 03:04:07;;;;;;;995.03;305.90;;;14.40;99.90;;;;;;5129697;27;20260;-50
2022/10/24 03:06:35;;;;;;;744.47;243.33;;;14.40;99.90;;;;;;5129950;27;20206;-51
2022/10/24 03:09:04;;;;;;;917.03;347.70;;;14.40;99.90;;;;;;5129899;27;20217;-51
2022/10/24 03:11:32;;;;;;;1159.87;393.80;;;14.40;99.90;;;;;;5129606;27;20223;-51
2022/10/24 03:14:00;;;;;;;715.03;246.30;;;14.40;99.90;;;;;;5129516;27;20377;-50
2022/10/24 03:16:28;;;;;;;907.90;340.80;;;14.50;99.90;;;;;;5129933;27;20290;-50
2022/10/24 03:18:56;;;;;;;991.73;420.10;;;14.50;99.90;;;;;;5129632;27;20299;-50
2022/10/24 03:21:26;;;;;;;984.83;294.17;;;14.40;99.90;;;;;;5129225;27;20525;-50
2022/10/24 03:23:54;;;;;;;773.07;276.60;;;14.40;99.90;;;;;;5128371;27;20207;-51
2022/10/24 03:26:22;;;;;;;376.93;113.10;;;14.30;99.90;;;;;;5129184;27;20210;-51
2022/10/24 03:28:50;;;;;;;1030.43;410.97;;;14.30;99.90;;;;;;5126572;27;20751;-51
2022/10/24 03:31:18;;;;;;;584.53;182.93;;;14.30;99.90;;;;;;5130723;27;20207;-51
2022/10/24 03:33:46;;;;;;;264.57;89.83;;;14.30;99.90;;;;;;5131014;27;20217;-52
2022/10/24 03:36:14;;;;;;;739.43;230.27;;;14.30;99.90;;;;;;5133599;27;20293;-50
2022/10/24 03:38:44;;;;;;;1016.00;506.47;;;14.30;99.90;;;;;;5133622;27;20294;-50
2022/10/24 03:41:12;;;;;;;635.43;265.17;;;14.20;99.90;;;;;;5133217;27;20294;-50
2022/10/24 03:43:40;;;;;;;508.37;158.07;;;14.20;99.90;;;;;;5132704;27;20294;-51
2022/10/24 03:46:08;;;;;;;765.67;253.47;;;14.10;99.90;;;;;;5133493;27;20293;-51
2022/10/24 03:48:36;;;;;;;872.33;355.13;;;14.10;99.90;;;;;;5132985;27;20305;-49
2022/10/24 03:51:04;;;;;;;939.00;400.73;;;14.10;99.90;;;;;;5134637;27;20207;-51
2022/10/24 03:53:32;;;;;;;874.00;357.23;;;14.00;99.90;;;;;;5145934;27;20309;-51
2022/10/24 03:56:01;;;;;;;452.50;164.10;;;14.00;99.90;;;;;;5152087;27;20206;-51
2022/10/24 03:58:30;;;;;;;821.63;322.37;;;13.90;99.90;;;;;;5152273;27;20228;-51
2022/10/24 04:00:58;;;;;;;603.13;212.20;;;13.90;99.90;;;;;;5152854;27;20198;-51
2022/10/24 04:03:26;;;;;;;806.60;297.80;;;13.90;99.90;;;;;;5144105;27;20213;-50
2022/10/24 04:05:54;;;;;;;669.53;262.37;;;13.80;99.90;;;;;;5120612;27;20286;-51
2022/10/24 04:08:23;;;;;;;726.40;285.43;;;13.80;99.90;;;;;;5146823;27;20316;-51
2022/10/24 04:10:51;;;;;;;524.50;190.03;;;13.80;99.90;;;;;;5148068;27;20227;-50
2022/10/24 04:13:21;;;;;;;660.97;192.73;;;13.70;99.90;;;;;;5135746;27;20221;-51
2022/10/24 04:15:49;;;;;;;648.67;276.90;;;13.70;99.90;;;;;;5132610;27;20290;-49
2022/10/24 04:18:17;;;;;;;390.23;139.23;;;13.70;99.90;;;;;;5132085;27;20233;-51
2022/10/24 04:20:45;;;;;;;547.73;187.97;;;13.70;99.90;;;;;;5139865;27;20289;-50
2022/10/24 04:23:13;;;;;;;532.27;245.97;;;13.70;99.90;;;;;;5150601;27;20281;-51
2022/10/24 04:25:41;;;;;;;859.10;312.73;;;13.70;99.90;;;;;;5150085;27;20582;-51
2022/10/24 04:28:09;;;;;;;627.10;202.77;;;13.70;99.90;;;;;;5149961;27;20233;-51
2022/10/24 04:30:38;;;;;;;617.77;218.27;;;13.70;99.90;;;;;;5150284;27;20202;-51
2022/10/24 04:33:07;;;;;;;687.87;222.07;;;13.60;99.90;;;;;;5122280;27;20238;-51
2022/10/24 04:35:35;;;;;;;540.93;149.23;;;13.70;99.90;;;;;;5138878;27;20825;-51
2022/10/24 04:38:03;;;;;;;1033.53;337.83;;;13.70;99.90;;;;;;5145619;27;20883;-51
2022/10/24 04:40:31;;;;;;;815.70;276.60;;;13.60;99.90;;;;;;5139458;27;20209;-51
2022/10/24 04:42:59;;;;;;;830.00;288.33;;;13.60;99.90;;;;;;5147167;27;20195;-52
2022/10/24 04:45:27;;;;;;;495.33;156.80;;;13.60;99.90;;;;;;5127995;27;20209;-51
2022/10/24 04:47:57;;;;;;;500.60;175.03;;;13.60;99.90;;;;;;5122916;27;20228;-52
2022/10/24 04:50:25;;;;;;;902.40;324.80;;;13.60;99.90;;;;;;5120437;27;20697;-51
2022/10/24 04:52:53;;;;;;;992.57;305.83;;;13.60;99.90;;;;;;5126838;27;20242;-50
2022/10/24 04:55:21;;;;;;;515.23;171.97;;;13.60;99.90;;;;;;5128926;27;20203;-52
2022/10/24 04:57:49;;;;;;;529.37;185.50;;;13.60;99.90;;;;;;5131269;27;20305;-51
2022/10/24 05:00:17;;;;;;;727.57;210.70;;;13.60;99.90;;;;;;5129704;27;20297;-51
2022/10/24 05:02:45;;;;;;;833.83;263.90;;;13.60;99.90;;;;;;5129167;27;20369;-50
2022/10/24 05:05:15;;;;;;;824.73;320.87;;;13.60;99.90;;;;;;5131600;27;20229;-51
2022/10/24 05:07:44;;;;;;;532.53;184.70;;;13.60;99.90;;;;;;5131465;27;20735;-51
2022/10/24 05:10:14;;;;;;;531.87;153.90;;;13.60;99.90;;;;;;5132297;27;20214;-51
2022/10/24 05:12:42;;;;;;;524.30;160.03;;;13.60;99.90;;;;;;5129989;27;20222;-51
2022/10/24 05:15:13;;;;;;;459.80;145.03;;;13.60;99.90;;;;;;5131913;27;20667;-51
2022/10/24 05:17:41;;;;;;;513.03;156.77;;;13.60;99.90;;;;;;5130365;27;20305;-49
2022/10/24 05:20:10;;;;;;;772.13;276.00;;;13.60;99.90;;;;;;5132478;27;20285;-51
2022/10/24 05:22:40;;;;;;;552.40;198.10;;;13.60;99.90;;;;;;5130556;27;20199;-51
2022/10/24 05:25:08;;;;;;;474.97;145.60;;;13.60;99.90;;;;;;5128149;27;20206;-50
2022/10/24 05:27:36;;;;;;;491.90;174.37;;;13.50;99.90;;;;;;5130401;27;20326;-51
2022/10/24 05:30:06;;;;;;;462.80;136.37;;;13.40;99.90;;;;;;5132251;27;20286;-50
2022/10/24 05:32:34;;;;;;;604.33;223.33;;;13.40;99.90;;;;;;5127640;27;20318;-50
2022/10/24 05:35:07;;;;;;;284.40;106.17;;;13.30;99.90;;;;;;5134787;27;20551;-51
2022/10/24 05:37:35;;;;;;;724.47;271.33;;;13.30;99.90;;;;;;5125444;27;20222;-53
2022/10/24 05:40:06;;;;;;;315.37;97.47;;;13.30;99.90;;;;;;5118633;27;20635;-52
2022/10/24 05:42:35;;;;;;;263.60;92.17;;;13.30;99.90;;;;;;5129744;27;20202;-51
2022/10/24 05:45:03;;;;;;;448.00;165.03;;;13.30;99.90;;;;;;5134676;27;20290;-52
2022/10/24 05:47:32;;;;;;;104.27;36.80;;;13.20;99.90;;;;;;5133272;27;20229;-52
2022/10/24 05:50:00;;;;;;;649.13;202.97;;;13.20;99.90;;;;;;5130182;27;20285;-52
2022/10/24 05:52:28;;;;;;;771.07;264.13;;;13.20;99.90;;;;;;5128411;27;20302;-51
2022/10/24 05:54:56;;;;;;;839.47;346.13;;;13.30;99.90;;;;;;5136898;27;20634;-51
2022/10/24 05:57:36;;;;;;;877.70;331.33;;;13.30;99.90;;;;;;5115807;27;20356;-51
2022/10/24 06:00:06;;;;;;;773.87;241.70;;;13.20;99.90;;;;;;5134004;27;20199;-51
2022/10/24 06:02:34;;;;;;;716.77;269.80;;;13.20;99.90;;;;;;5127586;27;20305;-51
2022/10/24 06:05:02;;;;;;;712.87;246.03;;;13.30;99.90;;;;;;5136486;27;20226;-51
2022/10/24 06:07:30;;;;;;;258.07;102.60;;;13.30;99.90;;;;;;5131444;27;20225;-51
2022/10/24 06:09:58;;;;;;;1031.83;371.07;;;13.20;99.90;;;;;;5135808;27;20293;-51
2022/10/24 06:12:27;;;;;;;366.17;131.63;;;13.20;99.90;;;;;;5131673;27;20199;-51
2022/10/24 06:14:58;;;;;;;645.13;222.93;;;13.20;99.90;;;;;;5125867;27;20296;-51
2022/10/24 06:17:26;;;;;;;830.93;281.87;;;13.20;99.90;;;;;;5124764;27;20750;-51
2022/10/24 06:19:54;;;;;;;481.10;147.67;;;13.20;99.90;;;;;;5126035;27;20243;-51
2022/10/24 06:22:24;;;;;;;767.63;297.70;;;13.20;99.90;;;;;;5125223;27;20289;-51
2022/10/24 06:24:52;;;;;;;785.20;245.60;;;13.30;99.90;;;;;;5131205;27;20208;-51
2022/10/24 06:27:20;;;;;;;754.17;350.37;;;13.30;99.90;;;;;;5134943;27;20318;-51
2022/10/24 06:29:48;;;;;;;1045.00;372.13;;;13.30;99.90;;;;;;5123942;27;20227;-51
2022/10/24 06:32:17;;;;;;;993.23;373.17;;;13.30;99.90;;;;;;5136264;27;20206;-51
2022/10/24 06:34:46;;;;;;;769.60;274.63;;;13.30;99.90;;;;;;5118477;27;20222;-51
2022/10/24 06:37:14;;;;;;;645.03;196.83;;;13.40;99.90;;;;;;5118468;27;20227;-51
2022/10/24 06:39:42;;;;;;;668.80;217.83;;;13.40;99.90;;;;;;5121685;27;20285;-51
2022/10/24 06:42:10;;;;;;;1075.30;487.60;;;13.40;99.90;;;;;;5136044;27;20207;-51
2022/10/24 06:44:38;;;;;;;941.97;361.23;;;13.50;99.90;;;;;;5129381;27;20214;-51
2022/10/24 06:47:07;;;;;;;674.30;220.77;;;13.50;99.90;;;;;;5121557;27;20585;-51
2022/10/24 06:49:36;;;;;;;855.13;293.30;;;13.50;99.90;;;;;;5120303;27;20294;-50
2022/10/24 06:52:04;;;;;;;990.43;335.00;;;13.50;99.90;;;;;;5135607;27;20206;-50
2022/10/24 06:54:34;;;;;;;1086.93;301.07;;;13.60;99.90;;;;;;5129359;27;20302;-51
2022/10/24 06:57:02;;;;;;;967.10;300.03;;;13.60;99.90;;;;;;5132112;27;20861;-51
2022/10/24 06:59:30;;;;;;;1625.47;496.20;;;13.70;99.90;;;;;;5119342;28;20290;-50
2022/10/24 07:01:58;;;;;;;1001.53;354.70;;;13.70;99.90;;;;;;5135596;27;20741;-51
2022/10/24 07:04:32;;;;;;;1274.73;372.23;;;13.80;99.90;;;;;;5128502;27;20258;-52
2022/10/24 07:07:02;;;;;;;1612.57;585.63;;;13.80;99.90;;;;;;5118842;27;20284;-50
2022/10/24 07:09:30;;;;;;;797.43;292.50;;;13.90;99.90;;;;;;5134122;27;20199;-52
2022/10/24 07:11:59;;;;;;;1400.67;519.17;;;13.90;99.90;;;;;;5143472;27;20232;-52
2022/10/24 07:14:27;;;;;;;912.20;302.10;;;14.00;99.90;;;;;;5118946;27;20302;-50
2022/10/24 07:16:55;;;;;;;746.03;270.43;;;14.00;99.90;;;;;;5142162;27;20230;-51
2022/10/24 07:19:23;;;;;;;1050.63;361.87;;;14.00;99.90;;;;;;5134216;27;20200;-50
2022/10/24 07:21:51;;;;;;;1195.43;390.60;;;14.10;99.90;;;;;;5140196;27;20234;-50
2022/10/24 07:24:21;;;;;;;1481.87;499.57;;;14.10;99.90;;;;;;5134557;27;20631;-52
2022/10/24 07:26:50;;;;;;;1238.00;468.53;;;14.10;99.90;;;;;;5139274;27;20224;-51
2022/10/24 07:29:18;;;;;;;1338.70;485.07;;;14.20;99.90;;;;;;5136086;27;20240;-51
2022/10/24 07:31:48;;;;;;;1353.53;527.73;;;14.20;99.90;;;;;;5134624;27;20289;-50
2022/10/24 07:34:16;;;;;;;1449.70;489.23;;;14.20;99.90;;;;;;5131307;27;20217;-51
2022/10/24 07:36:44;;;;;;;793.20;273.83;;;14.30;99.90;;;;;;5133090;27;20226;-51
2022/10/24 07:39:13;;;;;;;1141.33;444.10;;;14.30;99.90;;;;;;5125262;27;20295;-51
2022/10/24 07:41:43;;;;;;;1230.27;397.53;;;14.30;99.90;;;;;;5129185;27;20261;-51
2022/10/24 07:44:11;;;;;;;891.60;345.67;;;14.30;99.90;;;;;;5140074;27;20199;-51
2022/10/24 07:46:41;;;;;;;1127.43;435.03;;;14.40;99.90;;;;;;5130358;27;20285;-52
2022/10/24 07:49:09;;;;;;;1153.23;430.83;;;14.30;99.90;;;;;;5128471;27;20213;-51
2022/10/24 07:51:38;;;;;;;981.67;415.37;;;14.40;99.90;;;;;;5107661;27;20205;-51
2022/10/24 07:54:06;;;;;;;1245.57;385.83;;;14.40;99.90;;;;;;5125601;27;20759;-52
2022/10/24 07:56:34;;;;;;;868.70;311.20;;;14.40;99.90;;;;;;5129507;27;20239;-51
2022/10/24 07:59:04;;;;;;;1152.47;392.50;;;14.50;99.90;;;;;;5133265;27;20310;-51
2022/10/24 08:01:40;;;;;;;936.37;327.77;;;14.50;99.90;;;;;;5123049;27;20620;-51
2022/10/24 08:04:10;;;;;;;1477.07;490.00;;;14.50;99.90;;;;;;5127619;27;20198;-51
2022/10/24 08:06:39;;;;;;;1096.63;373.27;;;14.60;99.90;;;;;;5129349;27;20238;-54
2022/10/24 08:09:07;;;;;;;815.47;314.37;;;14.60;99.90;;;;;;5135546;27;20203;-50
2022/10/24 08:11:35;;;;;;;1127.23;432.97;;;14.60;99.90;;;;;;5132279;27;20220;-51
2022/10/24 08:14:05;;;;;;;884.67;321.67;;;14.70;99.90;;;;;;5120776;27;20306;-53
2022/10/24 08:16:33;;;;;;;1256.00;402.20;;;14.70;99.90;;;;;;5123004;27;20286;-51
2022/10/24 08:19:01;;;;;;;1149.63;444.60;;;14.70;99.90;;;;;;5128459;27;20287;-51
2022/10/24 08:21:30;;;;;;;1304.37;447.00;;;14.70;99.90;;;;;;5124972;27;20227;-50
2022/10/24 08:23:58;;;;;;;1182.13;367.23;;;14.70;99.90;;;;;;5131383;27;20217;-54
2022/10/24 08:26:26;;;;;;;1392.27;544.77;;;14.80;99.90;;;;;;5122359;27;20278;-49
2022/10/24 08:28:56;;;;;;;1388.53;508.50;;;14.80;99.90;;;;;;5121017;27;20203;-53
2022/10/24 08:31:26;;;;;;;1266.47;449.83;;;14.80;99.90;;;;;;5124018;27;20210;-52
2022/10/24 08:33:55;;;;;;;1002.10;365.23;;;14.80;99.90;;;;;;5129079;27;20203;-53
2022/10/24 08:36:25;;;;;;;1639.22;510.92;;;14.90;99.90;;;;;;5115987;27;20289;-51
2022/10/24 08:38:54;;;;;;;1329.50;465.33;;;14.90;99.90;;;;;;5116995;27;20294;-51
2022/10/24 08:41:30;;;;;;;1406.13;513.47;;;14.90;99.90;;;;;;5122848;27;20676;-50
2022/10/24 08:44:02;;;;;;;1238.80;480.43;;;15.00;99.90;;;;;;5130771;27;20241;-51
2022/10/24 08:46:43;;;;;;;1907.60;603.30;;;15.00;99.90;;;;;;5120870;27;20202;-51
2022/10/24 08:49:19;;;;;;;1439.73;527.37;;;15.00;99.90;;;;;;5119879;27;20210;-50
2022/10/24 08:51:53;;;;;;;1571.83;588.17;;;15.10;99.90;;;;;;5122873;27;20690;-50
2022/10/24 08:54:25;;;;;;;1629.63;513.60;;;15.10;99.90;;;;;;5117198;27;20307;-51
2022/10/24 08:56:56;;;;;;;1068.65;456.33;;;15.20;99.90;;;;;;5125559;27;20310;-51
2022/10/24 08:59:27;;;;;;;1102.70;470.10;;;15.20;99.90;;;;;;5125884;27;20203;-51
2022/10/24 09:01:59;;;;;;;1181.83;505.37;;;15.30;99.90;;;;;;5124038;27;20293;-51
2022/10/24 09:04:38;;;;;;;1288.40;447.95;;;15.30;99.90;;;;;;5119573;27;20609;-50
2022/10/24 09:07:13;;;;;;;1999.90;692.22;;;15.30;99.90;;;;;;5121392;27;20272;-51
2022/10/24 09:09:47;;;;;;;1234.05;461.50;;;15.40;99.90;;;;;;5129096;27;20214;-51
2022/10/24 09:12:17;;;;;;;1031.45;541.45;;;15.40;99.90;;;;;;5130268;27;20202;-50
2022/10/24 09:14:49;;;;;;;1424.38;559.72;;;15.50;99.90;;;;;;5128773;27;20207;-50
2022/10/24 09:17:22;;;;;;;1310.40;470.67;;;15.50;99.90;;;;;;5123253;27;20223;-51
2022/10/24 09:19:53;;;;;;;867.83;330.00;;;15.60;99.90;;;;;;5124705;27;20199;-50
2022/10/24 09:22:23;;;;;;;1214.57;476.70;;;15.60;99.90;;;;;;5127114;27;20215;-50
2022/10/24 09:24:54;;;;;;;1530.40;559.65;;;15.70;99.90;;;;;;5126633;27;20714;-51
2022/10/24 09:27:25;;;;;;;1275.28;566.55;;;15.60;99.90;;;;;;5117450;27;20325;-51
2022/10/24 09:29:54;;;;;;;1296.22;481.75;;;15.70;99.90;;;;;;5124171;27;20199;-51
2022/10/24 09:32:27;;;;;;;1596.60;528.97;;;15.70;99.90;;;;;;5126821;27;20330;-51
2022/10/24 09:34:58;;;;;;;1283.97;434.23;;;15.80;99.90;;;;;;5117886;27;20313;-51
2022/10/24 09:37:30;;;;;;;1559.68;673.30;;;15.80;99.90;;;;;;5122277;27;20270;-51
2022/10/24 09:40:16;;;;;;;805.63;295.63;;;15.80;99.90;;;;;;5122297;27;20240;-50
2022/10/24 09:42:51;;;;;;;1598.40;658.95;;;15.90;99.90;;;;;;5125275;27;20199;-51
2022/10/24 09:45:28;;;;;;;1487.53;549.75;;;15.90;99.90;;;;;;5126601;27;20195;-51
2022/10/24 09:48:00;;;;;;;1554.30;564.53;;;16.10;99.90;;;;;;5116434;27;20302;-51
2022/10/24 09:50:31;;;;;;;1999.90;859.10;;;16.10;99.90;;;;;;5122395;27;20293;-49
2022/10/24 09:53:02;;;;;;;1280.50;529.83;;;16.20;99.90;;;;;;5120879;27;20210;-51
2022/10/24 09:55:33;;;;;;;1809.13;718.25;;;16.20;99.90;;;;;;5120739;27;20254;-50
2022/10/24 09:58:04;;;;;;;1554.40;635.53;;;16.30;99.90;;;;;;5126581;27;20329;-51
2022/10/24 10:00:35;;;;;;;1980.28;680.33;;;16.40;99.90;;;;;;5125467;27;20225;-53
2022/10/24 10:03:06;;;;;;;1590.85;578.05;;;16.40;99.90;;;;;;5124869;27;20338;-51
2022/10/24 10:05:47;;;;;;;1999.90;773.00;;;16.40;99.90;;;;;;5129655;27;20298;-50
2022/10/24 10:08:21;;;;;;;1999.90;816.88;;;16.40;99.90;;;;;;5121255;27;20230;-50
2022/10/24 10:11:02;;;;;;;1283.32;595.63;;;16.50;99.90;;;;;;5123337;27;20255;-51
2022/10/24 10:13:36;;;;;;;1775.30;692.92;;;16.50;99.90;;;;;;5127610;27;20202;-51
2022/10/24 10:16:06;;;;;;;1577.25;685.17;;;16.60;99.90;;;;;;5133129;27;20346;-50
2022/10/24 10:18:45;;;;;;;1668.18;718.30;;;16.70;99.90;;;;;;5119899;27;20223;-50
2022/10/24 10:21:15;;;;;;;1206.25;605.10;;;16.70;99.90;;;;;;5127230;27;20201;-50
2022/10/24 10:23:46;;;;;;;994.08;395.35;;;16.70;99.90;;;;;;5131092;27;20242;-50
2022/10/24 10:26:18;;;;;;;1614.95;630.45;;;16.80;99.90;;;;;;5128306;27;20199;-51
2022/10/24 10:28:53;;;;;;;1146.07;459.50;;;16.80;99.90;;;;;;5133398;27;20203;-50
2022/10/24 10:31:26;;;;;;;1363.78;598.83;;;16.90;99.90;;;;;;5130226;27;20622;-50
2022/10/24 10:34:17;;;;;;;1953.13;701.40;;;16.90;99.90;;;;;;5130377;27;20246;-51
2022/10/24 10:37:23;;;;;;;1353.78;650.90;;;16.90;99.90;;;;;;5127652;27;20237;-54
2022/10/24 10:40:28;;;;;;;1740.20;726.30;;;17.00;99.90;;;;;;5135822;27;20298;-50
2022/10/24 10:43:22;;;;;;;994.95;468.85;;;16.90;99.90;;;;;;5025346;28;20246;-50
2022/10/24 10:46:04;;;;;;;1741.47;634.65;;;16.90;99.90;;;;;;5024138;28;20301;-51
2022/10/24 10:48:43;;;;;;;1231.45;537.67;;;16.90;99.90;;;;;;5106671;27;20237;-51
2022/10/24 10:51:23;;;;;;;1411.03;625.38;;;17.00;99.90;;;;;;5119019;27;20298;-51
2022/10/24 10:54:07;;;;;;;1269.28;676.28;;;17.00;99.90;;;;;;5124197;27;20301;-50
2022/10/24 10:56:45;;;;;;;1266.00;595.85;;;17.00;99.90;;;;;;5127315;27;20216;-50
2022/10/24 10:59:26;;;;;;;1226.00;591.78;;;17.20;99.90;;;;;;5123284;27;20578;-50
2022/10/24 11:02:02;;;;;;;1952.50;744.10;;;17.30;99.90;;;;;;5119882;27;20203;-51
2022/10/24 11:04:37;;;;;;;1886.65;789.35;;;17.50;99.90;;;;;;5124704;27;20217;-50
2022/10/24 11:07:12;;;;;;;1776.88;738.20;;;17.50;99.90;;;;;;5120053;27;20219;-51
2022/10/24 11:09:44;;;;;;;1999.90;883.47;;;17.60;99.90;;;;;;5122011;27;20333;-51
2022/10/24 11:12:18;;;;;;;1142.82;471.45;;;17.80;99.90;;;;;;5125624;27;20202;-51
2022/10/24 11:14:50;;;;;;;1338.75;602.80;;;17.90;99.90;;;;;;5120508;27;20207;-50
2022/10/24 11:17:23;;;;;;;1491.43;683.17;;;18.00;99.90;;;;;;5114251;27;20230;-51
2022/10/24 11:20:01;;;;;;;1673.22;722.75;;;18.20;99.90;;;;;;5125832;27;20293;-51
2022/10/24 11:22:35;;;;;;;1530.32;698.72;;;18.10;99.90;;;;;;5127444;27;20766;-50
2022/10/24 11:25:09;;;;;;;1344.03;654.55;;;18.10;99.90;;;;;;5128570;27;20313;-51
2022/10/24 11:27:40;;;;;;;1133.45;639.53;;;18.00;99.90;;;;;;5129373;27;20306;-51
2022/10/24 11:30:15;;;;;;;1600.50;788.28;;;17.90;99.90;;;;;;5122190;27;20744;-51
2022/10/24 11:32:49;;;;;;;1215.05;613.58;;;17.90;99.90;;;;;;5129031;27;20270;-50
2022/10/24 11:35:26;;;;;;;1504.03;748.97;;;17.90;99.90;;;;;;5121152;27;20211;-51
2022/10/24 11:38:00;;;;;;;1415.30;674.92;;;17.90;99.90;;;;;;5125463;27;20215;-51
2022/10/24 11:40:30;;;;;;;1266.88;646.10;;;18.00;99.90;;;;;;5125209;27;20306;-51
2022/10/24 11:43:08;;;;;;;1363.25;641.88;;;18.00;99.90;;;;;;5125214;27;20198;-50
2022/10/24 11:45:44;;;;;;;1364.88;732.83;;;18.10;99.90;;;;;;5128354;27;20728;-51
2022/10/24 11:48:18;;;;;;;1173.95;686.55;;;18.10;99.90;;;;;;5127747;27;20237;-50
2022/10/24 11:50:51;;;;;;;1678.30;728.13;;;18.00;99.90;;;;;;5122092;27;20201;-50
2022/10/24 11:53:47;;;;;;;1545.30;679.78;;;18.00;99.90;;;;;;5120957;27;20647;-51
2022/10/24 11:56:22;;;;;;;1981.80;820.88;;;18.00;99.90;;;;;;5122038;27;20984;-51
2022/10/24 11:58:58;;;;;;;1291.20;718.85;;;18.00;99.90;;;;;;5131269;27;20206;-51
2022/10/24 12:01:44;;;;;;;1428.85;687.83;;;18.00;99.90;;;;;;5128561;27;20675;-50
2022/10/24 12:04:37;;;;;;;1033.45;485.02;;;18.00;99.90;;;;;;5129092;27;20679;-51
2022/10/24 12:07:34;;;;;;;1735.22;773.70;;;17.90;99.90;;;;;;5127142;27;20333;-51
2022/10/24 12:10:22;;;;;;;1309.60;605.30;;;18.00;99.90;;;;;;5125218;27;20292;-52
2022/10/24 12:13:20;;;;;;;1493.80;720.70;;;18.20;99.90;;;;;;5126525;27;20213;-51
2022/10/24 12:15:58;;;;;;;1269.90;735.58;;;18.30;99.90;;;;;;5122236;27;20294;-51
2022/10/24 12:18:31;;;;;;;1181.57;684.53;;;18.30;99.90;;;;;;5119011;27;20310;-51
2022/10/24 12:21:03;;;;;;;1724.13;800.35;;;18.40;99.90;;;;;;5123605;27;20225;-52
2022/10/24 12:23:32;;;;;;;1862.85;819.60;;;18.50;99.90;;;;;;5125354;27;20214;-51
2022/10/24 12:26:17;;;;;;;1446.75;672.45;;;18.50;99.90;;;;;;5128316;27;20242;-52